Mein Schiff 4 — 9HA3513 — position and weather

sailwx.info

Track history (hours):
 
Tides and Currents Weather Stations Pressure Air Temp Water Temp Dewpoint Dewpoint Depression Visibility Wind Speed Wind Dir Waves Ship Positions

Mein Schiff 4

Last reported at 2017-Nov-23 02:18 UTC. Time now 2017-Nov-23 17:06 UTC.
Position N 28°58' W 013°32'.

Length 294 m; draft 8.2 m.

Type: Passenger vessel. MMSI: 229678000.

Date/timePositionNaut miles runAvg speedWind from/ knotsBaromVisibWave heightAir tempDewpointWater temp
2017-Nov-23 02:18N 28°58' W 013°32'0 0.0
2017-Nov-23 01:54N 28°58' W 013°32'0 0.0
2017-Nov-23 01:24N 28°58' W 013°32'0 0.0
2017-Nov-23 00:54N 28°58' W 013°32'0 0.0
2017-Nov-23 00:24N 28°58' W 013°32'0 0.0
2017-Nov-22 23:57N 28°58' W 013°32'0 0.0
2017-Nov-22 23:27N 28°58' W 013°32'0 0.0
2017-Nov-22 22:57N 28°58' W 013°32'0 0.0
2017-Nov-22 22:27N 28°58' W 013°32'0 0.0
2017-Nov-22 21:54N 28°58' W 013°32'0 0.0
2017-Nov-22 21:30N 28°58' W 013°32'0 0.0
2017-Nov-22 21:00N 28°58' W 013°32'0 0.0
2017-Nov-22 20:30N 28°58' W 013°32'0 0.0
2017-Nov-22 19:00N 28°58' W 013°32'  
2017-Nov-20 00:30N 28°06' W 015°06'611.1
2017-Nov-20 00:00N 28°06' W 015°12'611.2
2017-Nov-19 23:30N 28°06' W 015°18'510.6
2017-Nov-19 23:00N 28°07' W 015°24'2 3.0
2017-Nov-19 22:27N 28°08' W 015°25'0 0.0
2017-Nov-19 21:57N 28°08' W 015°25'0 0.0
2017-Nov-19 21:27N 28°08' W 015°25'0 0.0
2017-Nov-19 20:57N 28°08' W 015°25'0 0.0
2017-Nov-19 20:27N 28°08' W 015°25'0 0.0
2017-Nov-19 20:00N 28°08' W 015°25'0 0.0
2017-Nov-19 19:27N 28°08' W 015°25'0 0.0
2017-Nov-19 19:00N 28°08' W 015°25'0 0.0
2017-Nov-19 18:30N 28°08' W 015°25'0 0.0
2017-Nov-19 18:00N 28°08' W 015°25'0 0.0
2017-Nov-19 17:30N 28°08' W 015°25'0 0.0
2017-Nov-19 17:00N 28°08' W 015°25'0 0.0
2017-Nov-19 16:30N 28°08' W 015°25'0 0.0
2017-Nov-19 16:00N 28°08' W 015°25'0 0.0
2017-Nov-19 15:30N 28°08' W 015°25'0 0.0
2017-Nov-19 15:00N 28°08' W 015°25'0 0.0
2017-Nov-19 14:30N 28°08' W 015°25'0 0.0
2017-Nov-19 14:00N 28°08' W 015°25'0 0.0
2017-Nov-19 13:30N 28°08' W 015°25'0 0.0
2017-Nov-19 12:51N 28°08' W 015°25'0 0.0
2017-Nov-19 12:21N 28°08' W 015°25'0 0.0
2017-Nov-19 11:51N 28°08' W 015°25'0 0.0
2017-Nov-19 11:24N 28°08' W 015°25'0 0.0
2017-Nov-19 10:54N 28°08' W 015°25'0 0.0
2017-Nov-19 10:24N 28°08' W 015°25'0 0.0
2017-Nov-19 09:54N 28°08' W 015°25'0 0.0
2017-Nov-19 09:24N 28°08' W 015°25'0 0.0
2017-Nov-19 08:57N 28°08' W 015°25'0 0.0
2017-Nov-19 08:27N 28°08' W 015°25'0 0.0
2017-Nov-19 07:57N 28°08' W 015°25'0 0.0
2017-Nov-19 07:27N 28°08' W 015°25'0 0.0
2017-Nov-19 06:57N 28°08' W 015°25'0 0.0
2017-Nov-19 06:27N 28°08' W 015°25'0 0.0
2017-Nov-19 06:00N 28°08' W 015°25'0 0.0
2017-Nov-19 05:30N 28°08' W 015°25'0 0.0
2017-Nov-19 05:00N 28°08' W 015°25'0 0.0
2017-Nov-19 04:30N 28°08' W 015°25'1 1.1
2017-Nov-19 04:00N 28°08' W 015°25'4 8.7
2017-Nov-19 03:30N 28°07' W 015°20'611.8
2017-Nov-19 03:00N 28°07' W 015°14'611.2
2017-Nov-19 02:30N 28°07' W 015°07'510.9
2017-Nov-19 02:00N 28°07' W 015°01'611.1
2017-Nov-19 01:30N 28°07' W 014°55'611.3
2017-Nov-19 01:00N 28°05' W 014°49'611.5
2017-Nov-19 00:30N 28°03' W 014°43'611.3
2017-Nov-19 00:00N 28°01' W 014°37'611.5
2017-Nov-18 23:30N 27°59' W 014°31'60 3.2
2017-Nov-18 04:53N 28°48' W 013°53'4012.7
2017-Nov-18 01:43N 28°41' W 014°38'312.4
2017-Nov-18 01:30N 28°40' W 014°41'612.1
2017-Nov-18 01:00N 28°41' W 014°48'612.2
2017-Nov-18 00:30N 28°41' W 014°55'612.3
2017-Nov-18 00:00N 28°40' W 015°01'612.4
2017-Nov-17 23:30N 28°39' W 015°08'815.8
2017-Nov-17 23:00N 28°38' W 015°17'816.0
2017-Nov-17 22:30N 28°37' W 015°26'816.1
2017-Nov-17 22:00N 28°36' W 015°35'815.2
2017-Nov-17 21:30N 28°32' W 015°43'816.1
2017-Nov-17 21:00N 28°26' W 015°49'815.5
2017-Nov-17 20:30N 28°21' W 015°56'714.7
2017-Nov-17 20:00N 28°23' W 016°04'816.6
2017-Nov-17 19:30N 28°27' W 016°12'2 1.4
2017-Nov-17 17:44N 28°29' W 016°15'0 0.0
2017-Nov-17 17:29N 28°29' W 016°15'0 0.0
2017-Nov-17 10:08N 28°29' W 016°15'0 0.0
2017-Nov-17 09:56N 28°29' W 016°15'0 0.0
2017-Nov-17 09:26N 28°29' W 016°15'0 0.0
2017-Nov-17 08:44N 28°29' W 016°15'0 0.0
2017-Nov-17 08:29N 28°29' W 016°15'0 0.0
2017-Nov-17 07:59N 28°29' W 016°15'0 0.0
2017-Nov-17 07:22N 28°29' W 016°15'1 1.2
2017-Nov-17 06:55N 28°29' W 016°14'3 6.0
2017-Nov-17 06:30N 28°29' W 016°11'4 8.3
2017-Nov-17 06:00N 28°29' W 016°07'4 8.0
2017-Nov-17 05:30N 28°32' W 016°03'4 8.0
2017-Nov-17 05:00N 28°36' W 016°04'10 7.5
2017-Nov-17 03:39N 28°40' W 016°15'2 8.9
2017-Nov-17 03:26N 28°40' W 016°17'17 8.8
2017-Nov-17 01:28N 28°40' W 016°37'4 8.7
2017-Nov-17 01:00N 28°40' W 016°41'4 8.9
2017-Nov-17 00:30N 28°40' W 016°47'70 3.2
2017-Nov-16 02:20N 29°40' W 017°28'413.3
2017-Nov-16 02:00N 29°44' W 017°28'  
Track history (hours):
 
Tides and Currents Weather Stations Pressure Air Temp Water Temp Dewpoint Dewpoint Depression Visibility Wind Speed Wind Dir Waves Ship Positions

Mein Schiff 4

Last reported at 2017-Nov-23 02:18 UTC. Time now 2017-Nov-23 17:06 UTC.
Position N 28°58' W 013°32'.

Length 294 m; draft 8.2 m.

Type: Passenger vessel. MMSI: 229678000.

Date/timePositionNaut miles runAvg speedWind from/ knotsBaromVisibWave heightAir tempDewpointWater temp
2017-Nov-23 02:18N 28°58' W 013°32'0 0.0
2017-Nov-23 01:54N 28°58' W 013°32'0 0.0
2017-Nov-23 01:24N 28°58' W 013°32'0 0.0
2017-Nov-23 00:54N 28°58' W 013°32'0 0.0
2017-Nov-23 00:24N 28°58' W 013°32'0 0.0
2017-Nov-22 23:57N 28°58' W 013°32'0 0.0
2017-Nov-22 23:27N 28°58' W 013°32'0 0.0
2017-Nov-22 22:57N 28°58' W 013°32'0 0.0
2017-Nov-22 22:27N 28°58' W 013°32'0 0.0
2017-Nov-22 21:54N 28°58' W 013°32'0 0.0
2017-Nov-22 21:30N 28°58' W 013°32'0 0.0
2017-Nov-22 21:00N 28°58' W 013°32'0 0.0
2017-Nov-22 20:30N 28°58' W 013°32'0 0.0
2017-Nov-22 19:00N 28°58' W 013°32'  
2017-Nov-20 00:30N 28°06' W 015°06'611.1
2017-Nov-20 00:00N 28°06' W 015°12'611.2
2017-Nov-19 23:30N 28°06' W 015°18'510.6
2017-Nov-19 23:00N 28°07' W 015°24'2 3.0
2017-Nov-19 22:27N 28°08' W 015°25'0 0.0
2017-Nov-19 21:57N 28°08' W 015°25'0 0.0
2017-Nov-19 21:27N 28°08' W 015°25'0 0.0
2017-Nov-19 20:57N 28°08' W 015°25'0 0.0
2017-Nov-19 20:27N 28°08' W 015°25'0 0.0
2017-Nov-19 20:00N 28°08' W 015°25'0 0.0
2017-Nov-19 19:27N 28°08' W 015°25'0 0.0
2017-Nov-19 19:00N 28°08' W 015°25'0 0.0
2017-Nov-19 18:30N 28°08' W 015°25'0 0.0
2017-Nov-19 18:00N 28°08' W 015°25'0 0.0
2017-Nov-19 17:30N 28°08' W 015°25'0 0.0
2017-Nov-19 17:00N 28°08' W 015°25'0 0.0
2017-Nov-19 16:30N 28°08' W 015°25'0 0.0
2017-Nov-19 16:00N 28°08' W 015°25'0 0.0
2017-Nov-19 15:30N 28°08' W 015°25'0 0.0
2017-Nov-19 15:00N 28°08' W 015°25'0 0.0
2017-Nov-19 14:30N 28°08' W 015°25'0 0.0
2017-Nov-19 14:00N 28°08' W 015°25'0 0.0
2017-Nov-19 13:30N 28°08' W 015°25'0 0.0
2017-Nov-19 12:51N 28°08' W 015°25'0 0.0
2017-Nov-19 12:21N 28°08' W 015°25'0 0.0
2017-Nov-19 11:51N 28°08' W 015°25'0 0.0
2017-Nov-19 11:24N 28°08' W 015°25'0 0.0
2017-Nov-19 10:54N 28°08' W 015°25'0 0.0
2017-Nov-19 10:24N 28°08' W 015°25'0 0.0
2017-Nov-19 09:54N 28°08' W 015°25'0 0.0
2017-Nov-19 09:24N 28°08' W 015°25'0 0.0
2017-Nov-19 08:57N 28°08' W 015°25'0 0.0
2017-Nov-19 08:27N 28°08' W 015°25'0 0.0
2017-Nov-19 07:57N 28°08' W 015°25'0 0.0
2017-Nov-19 07:27N 28°08' W 015°25'0 0.0
2017-Nov-19 06:57N 28°08' W 015°25'0 0.0
2017-Nov-19 06:27N 28°08' W 015°25'0 0.0
2017-Nov-19 06:00N 28°08' W 015°25'0 0.0
2017-Nov-19 05:30N 28°08' W 015°25'0 0.0
2017-Nov-19 05:00N 28°08' W 015°25'0 0.0
2017-Nov-19 04:30N 28°08' W 015°25'1 1.1
2017-Nov-19 04:00N 28°08' W 015°25'4 8.7
2017-Nov-19 03:30N 28°07' W 015°20'611.8
2017-Nov-19 03:00N 28°07' W 015°14'611.2
2017-Nov-19 02:30N 28°07' W 015°07'510.9
2017-Nov-19 02:00N 28°07' W 015°01'611.1
2017-Nov-19 01:30N 28°07' W 014°55'611.3
2017-Nov-19 01:00N 28°05' W 014°49'611.5
2017-Nov-19 00:30N 28°03' W 014°43'611.3
2017-Nov-19 00:00N 28°01' W 014°37'611.5
2017-Nov-18 23:30N 27°59' W 014°31'60 3.2
2017-Nov-18 04:53N 28°48' W 013°53'4012.7
2017-Nov-18 01:43N 28°41' W 014°38'312.4
2017-Nov-18 01:30N 28°40' W 014°41'612.1
2017-Nov-18 01:00N 28°41' W 014°48'612.2
2017-Nov-18 00:30N 28°41' W 014°55'612.3
2017-Nov-18 00:00N 28°40' W 015°01'612.4
2017-Nov-17 23:30N 28°39' W 015°08'815.8
2017-Nov-17 23:00N 28°38' W 015°17'816.0
2017-Nov-17 22:30N 28°37' W 015°26'816.1
2017-Nov-17 22:00N 28°36' W 015°35'815.2
2017-Nov-17 21:30N 28°32' W 015°43'816.1
2017-Nov-17 21:00N 28°26' W 015°49'815.5
2017-Nov-17 20:30N 28°21' W 015°56'714.7
2017-Nov-17 20:00N 28°23' W 016°04'816.6
2017-Nov-17 19:30N 28°27' W 016°12'2 1.4
2017-Nov-17 17:44N 28°29' W 016°15'0 0.0
2017-Nov-17 17:29N 28°29' W 016°15'0 0.0
2017-Nov-17 10:08N 28°29' W 016°15'0 0.0
2017-Nov-17 09:56N 28°29' W 016°15'0 0.0
2017-Nov-17 09:26N 28°29' W 016°15'0 0.0
2017-Nov-17 08:44N 28°29' W 016°15'0 0.0
2017-Nov-17 08:29N 28°29' W 016°15'0 0.0
2017-Nov-17 07:59N 28°29' W 016°15'0 0.0
2017-Nov-17 07:22N 28°29' W 016°15'1 1.2
2017-Nov-17 06:55N 28°29' W 016°14'3 6.0
2017-Nov-17 06:30N 28°29' W 016°11'4 8.3
2017-Nov-17 06:00N 28°29' W 016°07'4 8.0
2017-Nov-17 05:30N 28°32' W 016°03'4 8.0
2017-Nov-17 05:00N 28°36' W 016°04'10 7.5
2017-Nov-17 03:39N 28°40' W 016°15'2 8.9
2017-Nov-17 03:26N 28°40' W 016°17'17 8.8
2017-Nov-17 01:28N 28°40' W 016°37'4 8.7
2017-Nov-17 01:00N 28°40' W 016°41'4 8.9
2017-Nov-17 00:30N 28°40' W 016°47'70 3.2
2017-Nov-16 02:20N 29°40' W 017°28'413.3
2017-Nov-16 02:00N 29°44' W 017°28'  

Dump ship's entire track history